Sangster International Airport
MKJS : rendu visible

Aérodrome :











RETROUVEZ-NOUS SUR...

 
LOGIN :

S'inscrire | Disclaimer

   EN    FR    IT 

 









Légende :    VFR   VFR Marginal   IFR   IFR Intensif   IFR Très Intensif
Visi : 
Plafond : 
>= 8 km
>= 3000ft
5 à 8 km
1000 à 3000 ft
1500m à 5 km
500 à 1000 ft
800 à 1500m
200 à 500 ft
< 800m
< 200 ft
Symboles :   Orages  Brouillard  Fortes neiges  Fortes précipitations  Vent > 20 kt






- Altitude de l'aérodrome : 4 ft
- Code IATA : MBJ


MKJS - Sangster International

DERNIER METAR :
  • 122000Z 04007KT 9999 FEW020 SCT022CB 30/24 Q1014

METARs EXPIRÉS :
  • 121900Z 05009KT 9999 FEW022 31/25 Q1014
  • 121800Z 04008KT 9999 FEW022 31/24 Q1015

TAF TAF MKJS
Valide du 12 à 18h jusqu'au 13 à 18h UTC


121715Z 1218/1318 05016KT 9999 FEW022 FEW024CB
PROB30
TEMPO 1219/1224 TSRA BKN020 SCT022CB
BECMG 1302/1304 VRB02KT
BECMG 1316/1318 06018KT
FIR MKJK / Amérique du Nord



MET'MAP, la Météo Aéronautique d'un coup d'oeil ! - Copyright ORBIFLY Décembre 2007 - Disclaimer

ORBIFLY MET'MAP TEAM :

Programmation & Développement : Alexandra Zaïnal
Sur une idée originale de : Baudouin d'Aumeries
Assistance à la programmation : Marc-Olivier Méhu
Soutien technique & logistique : Manuel Goepfert

Contact : metmap@orbifly.com




SOURCES & CREDITS :

   NOAA       Earth
Advisory